Aviation Digital Data Service (ADDS)

Output produced by METARs form (0828 UTC 23 January 2017)
found at http://aviationweather.gov/adds/metars/
 
KINT 230550Z 2306/2406 08013KT 3SM SHRA BKN006 OVC015 
     TEMPO 2307/2309 -TSRA BKN006 OVC015CB 
     FM231400 22006KT 4SM BR SCT005 BKN020 
     FM231900 23004KT P6SM VCSH BKN015 
     FM232100 30005KT P6SM VCSH SCT010 BKN030 
     FM240200 32008KT 4SM BR OVC015